Time;durP1;ratioP1;P1;durP2;ratioP2;P2;SDS_P1;SDS_P2;PMS_P1;PMS_P2;Temp;Humidity;BMP_temperature;BMP_pressure;BME280_temperature;BME280_humidity;BME280_pressure;Samples;Min_cycle;Max_cycle;Signal;HPM_P1;HPM_P2
2023/05/15 00:00:49;;;;;;;;;31.25;27.50;;;;;17.46;100.00;101429.41;5056529;28;45552;-81
2023/05/15 00:03:15;;;;;;;;;31.25;27.00;;;;;17.46;100.00;101433.84;5054544;28;45226;-78
2023/05/15 00:05:40;;;;;;;;;33.50;31.00;;;;;17.41;100.00;101435.69;5055493;28;46911;-78
2023/05/15 00:08:05;;;;;;;;;33.75;28.25;;;;;17.40;100.00;101455.25;5064350;28;66638;-80
2023/05/15 00:10:31;;;;;;;;;26.50;25.75;;;;;17.34;100.00;101433.97;5053936;28;45365;-83
2023/05/15 00:12:56;;;;;;;;;32.25;26.50;;;;;17.29;100.00;101440.22;5053563;28;60754;-80
2023/05/15 00:15:21;;;;;;;;;29.25;28.25;;;;;17.26;100.00;101437.56;5051134;28;55151;-79
2023/05/15 00:17:47;;;;;;;;;29.50;28.25;;;;;17.21;100.00;101427.84;5048910;28;71260;-78
2023/05/15 00:20:12;;;;;;;;;37.75;30.00;;;;;17.15;100.00;101431.44;5051958;28;63044;-77
2023/05/15 00:22:37;;;;;;;;;30.25;28.25;;;;;17.12;100.00;101427.88;5046948;28;45375;-78
2023/05/15 00:25:03;;;;;;;;;39.50;29.25;;;;;17.14;100.00;101431.41;5055881;28;46384;-79
2023/05/15 00:27:28;;;;;;;;;29.75;26.75;;;;;17.12;100.00;101430.56;5053592;28;46191;-78
2023/05/15 00:29:54;;;;;;;;;33.25;28.75;;;;;17.11;100.00;101428.78;5053924;28;64417;-82
2023/05/15 00:32:19;;;;;;;;;28.50;26.00;;;;;17.11;100.00;101420.78;5053830;28;45205;-78
2023/05/15 00:34:44;;;;;;;;;28.50;28.25;;;;;17.09;100.00;101422.56;5048119;28;51244;-78
2023/05/15 00:37:10;;;;;;;;;31.50;28.00;;;;;17.06;100.00;101403.91;5052918;28;67839;-79
2023/05/15 00:39:35;;;;;;;;;28.50;27.75;;;;;17.05;100.00;101411.03;5054144;28;46148;-78
2023/05/15 00:42:02;;;;;;;;;36.25;29.75;;;;;17.03;100.00;101412.81;5054840;28;53014;-78
2023/05/15 00:44:27;;;;;;;;;33.75;30.50;;;;;17.01;100.00;101410.16;5054963;28;47597;-78
2023/05/15 00:46:53;;;;;;;;;31.25;28.00;;;;;16.96;100.00;101411.97;5047134;28;45434;-78
2023/05/15 00:49:20;;;;;;;;;39.50;32.00;;;;;16.93;100.00;101405.75;5048590;28;47272;-79
2023/05/15 00:51:46;;;;;;;;;35.25;30.75;;;;;16.92;100.00;101412.00;5051794;28;58006;-78
2023/05/15 00:54:11;;;;;;;;;38.75;32.25;;;;;16.90;100.00;101404.00;5045764;28;47004;-78
2023/05/15 00:56:37;;;;;;;;;36.25;29.50;;;;;16.86;100.00;101417.38;5052816;28;60968;-78
2023/05/15 00:59:03;;;;;;;;;34.00;31.00;;;;;16.84;100.00;101408.50;5054735;28;45446;-76
2023/05/15 01:01:32;;;;;;;;;32.25;28.00;;;;;16.83;100.00;101417.38;5046046;28;45530;-78
2023/05/15 01:03:58;;;;;;;;;28.00;27.25;;;;;16.76;100.00;101420.06;5050500;28;45712;-79
2023/05/15 01:06:24;;;;;;;;;37.00;30.75;;;;;16.73;100.00;101419.22;5051640;28;45490;-78
2023/05/15 01:08:49;;;;;;;;;30.00;29.50;;;;;16.68;100.00;101416.53;5048600;28;45466;-78
2023/05/15 01:11:16;;;;;;;;;30.75;24.75;;;;;16.64;100.00;101421.88;5051032;28;64812;-78
2023/05/15 01:13:42;;;;;;;;;31.25;29.00;;;;;16.60;100.00;101420.13;5052706;28;46581;-78
2023/05/15 01:16:08;;;;;;;;;37.25;29.50;;;;;16.58;100.00;101424.59;5052817;28;45490;-78
2023/05/15 01:18:34;;;;;;;;;37.75;32.00;;;;;16.53;100.00;101416.59;5051881;28;45426;-78
2023/05/15 01:21:21;;;;;;;;;34.25;30.75;;;;;16.43;100.00;101418.41;5049179;28;45403;-79
2023/05/15 01:24:11;;;;;;;;;39.25;28.50;;;;;16.36;100.00;101418.44;5052244;28;45887;-79
2023/05/15 01:27:02;;;;;;;;;41.00;33.25;;;;;16.31;100.00;101425.56;5051621;28;45481;-77
2023/05/15 01:29:45;;;;;;;;;37.75;33.75;;;;;16.24;100.00;101430.94;5050004;28;45520;-78
2023/05/15 01:32:26;;;;;;;;;48.00;35.00;;;;;16.17;100.00;101423.81;5052596;28;45610;-78
2023/05/15 01:35:04;;;;;;;;;44.25;34.50;;;;;16.15;100.00;101430.06;5049926;28;47434;-78
2023/05/15 01:37:31;;;;;;;;;35.50;30.50;;;;;16.11;100.00;101417.63;5051476;28;45237;-81
2023/05/15 01:39:59;;;;;;;;;38.25;32.25;;;;;16.15;100.00;101428.28;5044705;28;62844;-80
2023/05/15 01:42:29;;;;;;;;;44.50;36.75;;;;;16.16;100.00;101422.06;5044037;28;45525;-78
2023/05/15 01:44:55;;;;;;;;;39.25;33.75;;;;;16.17;100.00;101423.81;5056285;28;46600;-78
2023/05/15 01:47:26;;;;;;;;;48.00;36.75;;;;;16.15;100.00;101414.97;5049357;28;65155;-80
2023/05/15 01:49:53;;;;;;;;;48.75;34.50;;;;;16.15;100.00;101422.06;5068896;28;45477;-78
2023/05/15 01:52:33;;;;;;;;;48.00;37.00;;;;;16.12;100.00;101422.06;5054310;28;60611;-78
2023/05/15 01:55:00;;;;;;;;;51.25;40.00;;;;;16.08;100.00;101422.94;5068025;28;47994;-78
2023/05/15 01:57:27;;;;;;;;;39.75;32.75;;;;;16.07;100.00;101429.16;5051024;28;45352;-80
2023/05/15 01:59:54;;;;;;;;;44.25;35.25;;;;;16.03;100.00;101420.28;5051243;28;45362;-78
2023/05/15 02:02:20;;;;;;;;;42.25;33.50;;;;;16.03;100.00;101428.28;5053502;28;45660;-78
2023/05/15 02:04:47;;;;;;;;;45.25;35.00;;;;;15.98;100.00;101412.34;5054544;28;71377;-79
2023/05/15 02:07:12;;;;;;;;;42.25;31.75;;;;;15.95;100.00;101422.09;5055007;28;70001;-78
2023/05/15 02:09:39;;;;;;;;;50.00;37.00;;;;;15.87;100.00;101422.13;5054966;28;65346;-80
2023/05/15 02:12:05;;;;;;;;;53.00;36.75;;;;;15.85;100.00;101425.66;5050218;28;45424;-78
2023/05/15 02:14:31;;;;;;;;;40.00;32.00;;;;;15.79;100.00;101421.22;5073775;28;48609;-78
2023/05/15 02:16:56;;;;;;;;;45.00;34.50;;;;;15.79;100.00;101423.00;5053187;28;66529;-78
2023/05/15 02:19:21;;;;;;;;;47.75;37.00;;;;;15.80;100.00;101424.78;5056496;28;58749;-79
2023/05/15 02:21:47;;;;;;;;;43.50;35.25;;;;;15.75;100.00;101419.44;5054571;28;60763;-78
2023/05/15 02:24:12;;;;;;;;;46.75;35.00;;;;;15.70;100.00;101421.22;5055974;28;47911;-78
2023/05/15 02:27:12;;;;;;;;;49.25;35.75;;;;;15.71;100.00;101417.66;5048938;28;66755;-78
2023/05/15 02:30:05;;;;;;;;;40.75;35.25;;;;;15.68;100.00;101421.25;5055715;28;46152;-78
2023/05/15 02:32:55;;;;;;;;;43.75;35.50;;;;;15.65;100.00;101412.34;5054673;28;45462;-78
2023/05/15 02:35:47;;;;;;;;;49.00;36.00;;;;;15.65;100.00;101420.34;5046230;28;47315;-78
2023/05/15 02:38:20;;;;;;;;;41.25;35.25;;;;;15.61;100.00;101424.75;5056467;28;45573;-78
2023/05/15 02:40:47;;;;;;;;;43.00;34.25;;;;;15.60;100.00;101411.44;5049161;28;45462;-78
2023/05/15 02:43:13;;;;;;;;;45.50;36.00;;;;;15.52;100.00;101411.44;5065999;28;59806;-84
2023/05/15 02:45:39;;;;;;;;;38.75;33.50;;;;;15.45;100.00;101410.56;5050895;28;45367;-78
2023/05/15 02:48:05;;;;;;;;;42.25;30.25;;;;;15.34;100.00;101404.38;5052362;28;55464;-80
2023/05/15 02:50:31;;;;;;;;;42.00;36.00;;;;;15.30;100.00;101397.25;5043583;28;45447;-77
2023/05/15 02:53:06;;;;;;;;;43.50;35.00;;;;;15.29;100.00;101400.81;5073248;28;45662;-78
2023/05/15 02:55:33;;;;;;;;;44.50;35.50;;;;;15.29;100.00;101400.81;5050869;28;46468;-78
2023/05/15 02:57:58;;;;;;;;;43.50;33.00;;;;;15.29;100.00;101400.81;5056849;28;45157;-80
2023/05/15 03:00:23;;;;;;;;;41.75;32.50;;;;;15.29;100.00;101413.22;5052208;28;53052;-78
2023/05/15 03:02:49;;;;;;;;;41.50;33.50;;;;;15.27;100.00;101407.88;5056198;28;61112;-79
2023/05/15 03:05:14;;;;;;;;;41.50;35.00;;;;;15.28;100.00;101404.31;5056493;28;47406;-78
2023/05/15 03:07:42;;;;;;;;;41.00;33.00;;;;;15.28;100.00;101409.66;5048294;28;46261;-78
2023/05/15 03:10:08;;;;;;;;;42.00;34.25;;;;;15.27;100.00;101409.66;5055737;28;45304;-78
2023/05/15 03:12:33;;;;;;;;;40.50;32.25;;;;;15.22;100.00;101404.31;5049459;28;45524;-78
2023/05/15 03:14:58;;;;;;;;;32.25;28.75;;;;;15.20;100.00;101408.78;5051391;28;47142;-79
2023/05/15 03:17:24;;;;;;;;;35.25;30.75;;;;;15.18;100.00;101414.09;5048461;28;67645;-79
2023/05/15 03:19:49;;;;;;;;;37.25;31.50;;;;;15.13;100.00;101404.34;5049494;28;65537;-79
2023/05/15 03:22:15;;;;;;;;;39.50;34.50;;;;;15.09;100.00;101408.75;5056000;28;45322;-78
2023/05/15 03:24:40;;;;;;;;;39.00;31.75;;;;;15.05;100.00;101401.66;5057407;28;47389;-79
2023/05/15 03:27:05;;;;;;;;;40.00;32.00;;;;;15.02;100.00;101399.00;5051503;28;67455;-78
2023/05/15 03:29:31;;;;;;;;;37.50;29.50;;;;;15.02;100.00;101399.00;5051493;28;55056;-79
2023/05/15 03:31:56;;;;;;;;;31.75;27.25;;;;;15.02;100.00;101406.97;5057251;28;45489;-78
2023/05/15 03:34:21;;;;;;;;;37.75;32.00;;;;;15.00;100.00;101394.56;5050893;28;66745;-78
2023/05/15 03:36:47;;;;;;;;;43.75;34.50;;;;;14.94;100.00;101392.78;5046860;28;68448;-82
2023/05/15 03:39:12;;;;;;;;;39.25;30.00;;;;;14.90;100.00;101393.63;5051638;28;45375;-78
2023/05/15 03:41:37;;;;;;;;;41.00;32.25;;;;;14.88;100.00;101390.09;5048970;28;58764;-79
2023/05/15 03:44:03;;;;;;;;;37.25;32.00;;;;;14.88;100.00;101390.97;5049453;28;55541;-78
2023/05/15 03:46:28;;;;;;;;;41.25;32.25;;;;;14.89;100.00;101390.09;5048952;28;45208;-82
2023/05/15 03:48:54;;;;;;;;;38.25;29.00;;;;;14.92;100.00;101398.09;5052852;28;64789;-78
2023/05/15 03:51:20;;;;;;;;;40.50;31.75;;;;;14.94;100.00;101395.44;5056336;28;45450;-78
2023/05/15 03:53:45;;;;;;;;;35.00;30.25;;;;;14.94;100.00;101400.75;5052391;28;46070;-82
2023/05/15 03:56:11;;;;;;;;;42.00;34.00;;;;;14.95;100.00;101413.16;5051770;28;67647;-76
2023/05/15 03:58:36;;;;;;;;;38.75;32.00;;;;;14.97;100.00;101402.50;5043389;28;64198;-80
2023/05/15 04:01:01;;;;;;;;;39.25;32.75;;;;;14.96;100.00;101398.97;5048853;28;63342;-78
2023/05/15 04:03:27;;;;;;;;;36.50;27.75;;;;;14.98;100.00;101404.31;5048656;28;69972;-78
2023/05/15 04:05:52;;;;;;;;;44.50;34.25;;;;;14.97;100.00;101395.44;5047658;28;45535;-79
2023/05/15 04:08:17;;;;;;;;;45.00;32.00;;;;;14.97;100.00;101399.84;5053534;28;60930;-78
2023/05/15 04:10:43;;;;;;;;;37.50;31.25;;;;;14.93;100.00;101391.88;5054693;28;63274;-78
2023/05/15 04:13:08;;;;;;;;;44.50;30.50;;;;;14.90;100.00;101404.28;5052951;28;67712;-78
2023/05/15 04:15:34;;;;;;;;;47.00;33.50;;;;;14.95;100.00;101402.50;5053215;28;65195;-78
2023/05/15 04:17:59;;;;;;;;;45.00;33.75;;;;;14.98;100.00;101401.66;5055356;28;45498;-78
2023/05/15 04:20:25;;;;;;;;;36.75;28.75;;;;;14.96;100.00;101404.28;5066710;28;45327;-79
2023/05/15 04:22:51;;;;;;;;;39.25;33.00;;;;;14.92;100.00;101397.22;5050780;28;49212;-78
2023/05/15 04:25:17;;;;;;;;;43.75;34.00;;;;;14.91;100.00;101409.63;5054388;28;45366;-81
2023/05/15 04:27:43;;;;;;;;;42.75;32.25;;;;;14.88;100.00;101393.66;5053619;28;45324;-80
2023/05/15 04:30:09;;;;;;;;;34.25;29.00;;;;;14.87;100.00;101389.22;5055345;28;45349;-78
2023/05/15 04:32:35;;;;;;;;;38.00;32.25;;;;;14.90;100.00;101393.63;5067756;28;46889;-78
2023/05/15 04:35:01;;;;;;;;;40.75;31.75;;;;;14.94;100.00;101384.78;5053775;28;45386;-78
2023/05/15 04:37:27;;;;;;;;;43.50;34.00;;;;;14.96;100.00;101385.66;5052064;28;45524;-79
2023/05/15 04:39:53;;;;;;;;;41.75;32.50;;;;;15.02;100.00;101387.44;5048570;28;45449;-78
2023/05/15 04:42:18;;;;;;;;;38.50;32.00;;;;;15.05;100.00;101390.13;5045897;28;47459;-79
2023/05/15 04:44:43;;;;;;;;;33.00;29.00;;;;;15.04;100.00;101386.59;5046022;28;66227;-78
2023/05/15 04:47:10;;;;;;;;;43.00;33.75;;;;;15.08;100.00;101385.72;5052854;28;45350;-79
2023/05/15 04:49:35;;;;;;;;;38.50;27.25;;;;;15.11;100.00;101382.16;5054058;28;45475;-78
2023/05/15 04:52:00;;;;;;;;;37.50;27.75;;;;;15.12;100.00;101382.13;5051444;28;46459;-78
2023/05/15 04:54:26;;;;;;;;;38.00;29.25;;;;;15.12;100.00;101373.28;5050223;28;65780;-80
2023/05/15 04:56:51;;;;;;;;;37.75;30.25;;;;;15.14;100.00;101383.06;5054999;28;57264;-78
2023/05/15 04:59:17;;;;;;;;;39.25;29.25;;;;;15.15;100.00;101379.50;5054600;28;45463;-78
2023/05/15 05:01:42;;;;;;;;;37.25;31.25;;;;;15.20;100.00;101385.72;5050738;28;46553;-78
2023/05/15 05:04:07;;;;;;;;;39.00;27.50;;;;;15.22;100.00;101375.06;5051882;28;45287;-81
2023/05/15 05:06:33;;;;;;;;;39.75;34.50;;;;;15.26;100.00;101378.63;5045781;28;63914;-78
2023/05/15 05:08:58;;;;;;;;;39.00;31.25;;;;;15.27;100.00;101377.72;5047631;28;62200;-78
2023/05/15 05:11:23;;;;;;;;;40.00;28.50;;;;;15.30;100.00;101383.06;5055040;28;46202;-81
2023/05/15 05:13:49;;;;;;;;;42.00;29.00;;;;;15.32;100.00;101371.53;5047841;28;59227;-78
2023/05/15 05:16:15;;;;;;;;;40.25;32.25;;;;;15.34;100.00;101377.75;5053255;28;45280;-78
2023/05/15 05:18:40;;;;;;;;;37.50;28.25;;;;;15.36;100.00;101383.94;5050129;28;45569;-77
2023/05/15 05:21:05;;;;;;;;;36.75;32.00;;;;;15.38;100.00;101371.53;5051134;28;50175;-79
2023/05/15 05:23:31;;;;;;;;;42.00;33.25;;;;;15.39;100.00;101377.72;5045975;28;45776;-78
2023/05/15 05:25:58;;;;;;;;;42.75;32.25;;;;;15.41;100.00;101381.28;5055294;28;45146;-78
2023/05/15 05:28:23;;;;;;;;;40.50;32.75;;;;;15.44;100.00;101370.63;5049831;28;45495;-78
2023/05/15 05:30:49;;;;;;;;;47.75;34.75;;;;;15.47;100.00;101378.63;5051611;28;68190;-77
2023/05/15 05:33:14;;;;;;;;;39.25;33.25;;;;;15.49;100.00;101379.50;5052597;28;45465;-78
2023/05/15 05:35:40;;;;;;;;;37.75;33.50;;;;;15.50;100.00;101378.63;5050526;28;54472;-78
2023/05/15 05:38:05;;;;;;;;;35.50;28.75;;;;;15.47;100.00;101381.28;5050803;28;45549;-77
2023/05/15 05:40:31;;;;;;;;;32.25;28.25;;;;;15.44;100.00;101381.28;5051804;28;52795;-77
2023/05/15 05:43:00;;;;;;;;;36.75;29.50;;;;;15.41;100.00;101383.97;5052327;28;45650;-76
2023/05/15 05:45:26;;;;;;;;;30.00;24.00;;;;;15.40;100.00;101383.06;5043681;28;45592;-76
2023/05/15 05:47:51;;;;;;;;;34.50;28.00;;;;;15.39;100.00;101377.72;5048926;28;45546;-75
2023/05/15 05:50:16;;;;;;;;;38.00;30.00;;;;;15.39;100.00;101388.38;5063351;28;45729;-74
2023/05/15 05:52:42;;;;;;;;;39.00;33.75;;;;;15.38;100.00;101384.81;5046818;28;67963;-75
2023/05/15 05:55:08;;;;;;;;;31.75;26.00;;;;;15.39;100.00;101388.38;5042648;28;45419;-77
2023/05/15 05:57:33;;;;;;;;;44.75;31.50;;;;;15.37;100.00;101388.38;5049734;28;45868;-76
2023/05/15 05:59:59;;;;;;;;;34.50;26.25;;;;;15.37;100.00;101385.72;5051621;28;62345;-76
2023/05/15 06:02:24;;;;;;;;;40.25;32.50;;;;;15.42;100.00;101380.41;5053027;28;45594;-79
2023/05/15 06:04:50;;;;;;;;;44.00;29.75;;;;;15.45;100.00;101388.41;5053212;28;45542;-79
2023/05/15 06:07:15;;;;;;;;;44.25;30.00;;;;;15.46;100.00;101388.38;5048072;28;45542;-76
2023/05/15 06:09:40;;;;;;;;;37.75;32.25;;;;;15.47;100.00;101389.28;5051376;28;68299;-78
2023/05/15 06:12:07;;;;;;;;;46.25;33.00;;;;;15.53;100.00;101386.59;5054327;28;45424;-79
2023/05/15 06:14:32;;;;;;;;;31.00;28.75;;;;;15.57;100.00;101388.38;5053497;28;45359;-76
2023/05/15 06:16:59;;;;;;;;;39.75;31.50;;;;;15.60;100.00;101393.69;5053688;28;45463;-79
2023/05/15 06:19:24;;;;;;;;;29.00;20.50;;;;;15.57;100.00;101391.03;5054274;28;45697;-77
2023/05/15 06:21:50;;;;;;;;;40.25;25.00;;;;;15.52;100.00;101395.47;5055622;28;64903;-76
2023/05/15 06:24:15;;;;;;;;;44.00;33.25;;;;;15.52;100.00;101398.13;5056621;28;45565;-77
2023/05/15 06:26:40;;;;;;;;;33.50;29.00;;;;;15.55;100.00;101403.44;5056364;28;45557;-77
2023/05/15 06:29:06;;;;;;;;;35.25;32.50;;;;;15.54;100.00;101399.00;5055656;28;70222;-77
2023/05/15 06:31:31;;;;;;;;;44.00;32.50;;;;;15.48;100.00;101400.81;5052073;28;45379;-77
2023/05/15 06:33:56;;;;;;;;;41.75;32.50;;;;;15.47;100.00;101407.91;5048131;28;64454;-76
2023/05/15 06:36:22;;;;;;;;;37.25;32.00;;;;;15.48;100.00;101414.09;5048257;28;60057;-77
2023/05/15 06:38:47;;;;;;;;;34.25;27.50;;;;;15.49;100.00;101400.78;5052292;28;66048;-79
2023/05/15 06:41:12;;;;;;;;;34.50;30.00;;;;;15.55;100.00;101395.47;5054968;28;64381;-78
2023/05/15 06:43:38;;;;;;;;;37.75;29.75;;;;;15.62;100.00;101396.38;5056165;28;45482;-77
2023/05/15 06:46:03;;;;;;;;;29.75;28.25;;;;;15.69;100.00;101395.50;5051862;28;45581;-77
2023/05/15 06:48:29;;;;;;;;;30.25;26.00;;;;;15.74;100.00;101393.72;5055249;28;46316;-79
2023/05/15 06:50:54;;;;;;;;;33.25;29.75;;;;;15.78;100.00;101397.28;5038400;28;45790;-77
2023/05/15 06:53:19;;;;;;;;;33.50;26.75;;;;;15.82;100.00;101391.03;5039832;28;45396;-79
2023/05/15 06:55:45;;;;;;;;;41.00;32.00;;;;;15.86;100.00;101396.34;5057625;28;45486;-78
2023/05/15 06:58:10;;;;;;;;;36.00;30.00;;;;;15.86;100.00;101399.00;5057734;28;45499;-77
2023/05/15 07:00:36;;;;;;;;;37.75;29.50;;;;;15.84;100.00;101400.81;5057386;28;45724;-77
2023/05/15 07:03:01;;;;;;;;;34.25;27.25;;;;;15.87;100.00;101398.16;5026537;22;45724;-77
2023/05/15 07:05:26;;;;;;;;;41.50;31.00;;;;;15.85;100.00;101396.38;5032029;28;57404;-77
2023/05/15 07:07:52;;;;;;;;;34.50;27.25;;;;;15.85;100.00;101397.25;5034824;28;46284;-76
2023/05/15 07:10:17;;;;;;;;;38.00;26.75;;;;;15.88;100.00;101399.91;5030158;28;45198;-77
2023/05/15 07:12:43;;;;;;;;;31.00;24.50;;;;;15.92;100.00;101392.78;5035914;28;45260;-77
2023/05/15 07:15:08;;;;;;;;;33.00;27.00;;;;;15.96;100.00;101387.47;5043866;28;45382;-77
2023/05/15 07:17:34;;;;;;;;;28.75;25.25;;;;;16.01;100.00;101390.13;5051108;28;46745;-76
2023/05/15 07:19:59;;;;;;;;;28.75;25.25;;;;;16.04;100.00;101395.44;5051869;28;50511;-76
2023/05/15 07:22:28;;;;;;;;;30.25;24.50;;;;;16.09;100.00;101387.44;5054994;28;60294;-77
2023/05/15 07:24:53;;;;;;;;;25.75;23.00;;;;;16.11;100.00;101388.31;5055289;28;45479;-76
2023/05/15 07:27:18;;;;;;;;;36.00;24.50;;;;;16.14;100.00;101391.88;5038350;28;59522;-77
2023/05/15 07:29:44;;;;;;;;;35.00;31.25;;;;;16.20;100.00;101390.97;5047494;28;68590;-77
2023/05/15 07:32:09;;;;;;;;;30.75;25.00;;;;;16.22;100.00;101383.84;5055760;28;45614;-77
2023/05/15 07:34:34;;;;;;;;;28.25;23.00;;;;;16.28;100.00;101382.94;5051639;28;45461;-76
2023/05/15 07:37:00;;;;;;;;;28.75;24.00;;;;;16.38;100.00;101385.56;5052945;28;69042;-76
2023/05/15 07:39:25;;;;;;;;;27.00;22.00;;;;;16.43;100.00;101382.88;5037048;28;68564;-76
2023/05/15 07:41:50;;;;;;;;;29.00;22.75;;;;;16.50;100.00;101389.94;5054478;28;63423;-77
2023/05/15 07:44:16;;;;;;;;;30.00;19.00;;;;;16.54;100.00;101390.81;5036900;28;58131;-80
2023/05/15 07:46:41;;;;;;;;;28.00;23.00;;;;;16.59;100.00;101389.91;5053782;28;68747;-85
2023/05/15 07:49:06;;;;;;;;;29.75;23.50;;;;;16.64;100.00;101388.09;5050892;28;45461;-78
2023/05/15 07:51:32;;;;;;;;;38.50;28.25;;;;;16.69;100.00;101385.41;5049935;28;45351;-79
2023/05/15 07:53:57;;;;;;;;;32.33;26.33;;;;;16.71;100.00;101392.53;5038236;28;57934;-76
2023/05/15 07:56:22;;;;;;;;;35.25;27.75;;;;;16.75;100.00;101399.63;5054112;28;68156;-75
2023/05/15 07:58:48;;;;;;;;;30.75;24.00;;;;;16.75;100.00;101396.97;5032810;28;67481;-78
2023/05/15 08:01:13;;;;;;;;;26.00;24.25;;;;;16.79;100.00;101399.63;5054374;28;62804;-76
2023/05/15 08:03:38;;;;;;;;;33.25;23.25;;;;;16.79;100.00;101396.97;5043385;28;61263;-78
2023/05/15 08:06:04;;;;;;;;;30.25;26.00;;;;;16.77;100.00;101404.94;5049158;28;69559;-76
2023/05/15 08:08:29;;;;;;;;;35.25;24.50;;;;;16.74;100.00;101400.53;5048137;28;45534;-76
2023/05/15 08:10:55;;;;;;;;;32.00;27.00;;;;;16.77;100.00;101396.94;5046299;28;53191;-77
2023/05/15 08:13:20;;;;;;;;;33.50;26.25;;;;;16.76;100.00;101389.84;5050420;28;55213;-77
2023/05/15 08:15:45;;;;;;;;;25.00;23.33;;;;;16.76;100.00;101397.84;5051488;28;45950;-76
2023/05/15 08:18:11;;;;;;;;;29.33;23.33;;;;;16.75;100.00;101401.41;5048450;28;51761;-76
2023/05/15 08:20:37;;;;;;;;;33.75;26.00;;;;;16.73;100.00;101393.44;5053159;28;62367;-76
2023/05/15 08:23:02;;;;;;;;;29.00;26.50;;;;;16.72;100.00;101386.34;5054232;28;45680;-77
2023/05/15 08:25:27;;;;;;;;;33.50;24.25;;;;;16.74;100.00;101386.31;5046315;28;47093;-80
2023/05/15 08:27:53;;;;;;;;;35.75;28.75;;;;;16.73;100.00;101388.09;5053243;28;56600;-79
2023/05/15 08:30:18;;;;;;;;;38.75;30.75;;;;;16.76;100.00;101393.41;5052735;28;45406;-76
2023/05/15 08:32:45;;;;;;;;;31.75;27.25;;;;;16.81;100.00;101381.81;5048675;28;62534;-77
2023/05/15 08:35:10;;;;;;;;;37.50;25.50;;;;;16.89;100.00;101386.22;5045167;28;46563;-77
2023/05/15 08:37:36;;;;;;;;;40.75;31.50;;;;;16.90;100.00;101380.00;5051294;28;45474;-77
2023/05/15 08:40:04;;;;;;;;;34.50;30.00;;;;;16.93;100.00;101379.06;5054894;28;45446;-76
2023/05/15 08:42:37;;;;;;;;;31.25;26.50;;;;;16.96;100.00;101371.94;5051584;28;45532;-77
2023/05/15 08:45:04;;;;;;;;;35.00;31.00;;;;;17.01;100.00;101374.59;5049708;28;47615;-76
2023/05/15 08:47:32;;;;;;;;;39.25;30.50;;;;;17.10;100.00;101370.94;5040131;28;45501;-78
2023/05/15 08:50:14;;;;;;;;;38.25;30.50;;;;;17.18;100.00;101367.34;5017963;28;45525;-76
2023/05/15 08:52:41;;;;;;;;;35.75;28.25;;;;;17.30;100.00;101366.34;5030798;28;45286;-79
2023/05/15 08:55:07;;;;;;;;;37.50;29.75;;;;;17.41;100.00;101364.47;5050581;28;45524;-78
2023/05/15 08:57:33;;;;;;;;;35.50;31.00;;;;;17.53;100.00;101374.19;5046588;28;45538;-79
2023/05/15 08:59:59;;;;;;;;;45.75;33.00;;;;;17.59;100.00;101379.47;5033049;28;45527;-75
2023/05/15 09:02:25;;;;;;;;;40.25;30.25;;;;;17.64;100.00;101368.75;5047321;28;58860;-76
2023/05/15 09:04:51;;;;;;;;;37.25;30.75;;;;;17.77;100.00;101373.09;5047195;28;46498;-76
2023/05/15 09:07:16;;;;;;;;;35.00;31.25;;;;;17.91;100.00;101384.53;5046848;28;45524;-75
2023/05/15 09:09:43;;;;;;;;;36.00;28.00;;;;;17.98;100.00;101378.22;5034258;28;45463;-75
2023/05/15 09:12:15;;;;;;;;;34.33;26.67;;;;;18.04;100.00;101369.25;5056792;28;45485;-75
2023/05/15 09:14:44;;;;;;;;;33.75;29.00;;;;;18.08;100.00;101370.97;5055811;28;47290;-77
2023/05/15 09:17:10;;;;;;;;;28.50;26.50;;;;;18.09;100.00;101364.72;5055288;28;45592;-75
2023/05/15 09:19:39;;;;;;;;;39.00;30.00;;;;;18.13;100.00;101374.50;5050187;28;45493;-78
2023/05/15 09:22:22;;;;;;;;;40.67;32.67;;;;;18.15;100.00;101369.13;5055975;28;45434;-75
2023/05/15 09:24:48;;;;;;;;;45.67;30.00;;;;;18.15;100.00;101371.78;5052841;28;46739;-75
2023/05/15 09:27:13;;;;;;;;;45.75;34.25;;;;;18.14;100.00;101365.56;5055189;28;45513;-77
2023/05/15 09:29:39;;;;;;;;;40.00;31.75;;;;;18.11;100.00;101365.63;5057668;28;45567;-76
2023/05/15 09:32:09;;;;;;;;;47.25;31.50;;;;;18.16;100.00;101361.06;5057846;28;45424;-80
2023/05/15 09:34:37;;;;;;;;;39.00;30.75;;;;;18.19;100.00;101361.03;5029306;28;47067;-76
2023/05/15 09:37:05;;;;;;;;;33.25;28.50;;;;;18.24;100.00;101352.97;5035352;28;45430;-78
2023/05/15 09:39:31;;;;;;;;;40.75;31.50;;;;;18.29;100.00;101354.69;5053851;28;45634;-76
2023/05/15 09:42:14;;;;;;;;;38.00;30.25;;;;;18.32;100.00;101360.00;5033350;28;45428;-80
2023/05/15 09:44:41;;;;;;;;;44.25;31.75;;;;;18.35;100.00;101359.06;5051081;28;45659;-77
2023/05/15 09:47:09;;;;;;;;;39.75;32.00;;;;;18.31;100.00;101360.88;5049367;28;45929;-77
2023/05/15 09:49:34;;;;;;;;;44.00;32.50;;;;;18.29;100.00;101367.16;5053883;28;45416;-80
2023/05/15 09:52:00;;;;;;;;;40.00;33.25;;;;;18.24;100.00;101361.88;5051627;28;45909;-78
2023/05/15 09:54:29;;;;;;;;;49.00;33.50;;;;;18.24;100.00;101367.22;5045702;28;45694;-78
2023/05/15 09:56:55;;;;;;;;;48.50;35.75;;;;;18.22;100.00;101368.16;5053989;28;45598;-77
2023/05/15 09:59:20;;;;;;;;;47.00;36.00;;;;;18.21;100.00;101369.91;5035358;28;45461;-74
2023/05/15 10:01:48;;;;;;;;;35.33;30.67;;;;;18.26;100.00;101365.41;5055035;28;45833;-75
2023/05/15 10:04:13;;;;;;;;;47.50;37.00;;;;;18.31;100.00;101374.25;5052959;28;46461;-74
2023/05/15 10:06:41;;;;;;;;;47.50;32.75;;;;;18.41;100.00;101375.03;5049956;28;45534;-75
2023/05/15 10:09:06;;;;;;;;;27.75;26.50;;;;;18.49;100.00;101374.94;5052825;28;45548;-75
2023/05/15 10:11:35;;;;;;;;;37.75;30.00;;;;;18.58;100.00;101372.13;5036281;28;45507;-79
2023/05/15 10:14:01;;;;;;;;;42.50;33.00;;;;;18.67;100.00;101366.66;5049117;28;46262;-76
2023/05/15 10:16:27;;;;;;;;;36.00;30.50;;;;;18.75;100.00;101369.25;5054682;28;45523;-75
2023/05/15 10:18:56;;;;;;;;;36.75;29.75;;;;;18.92;100.00;101364.56;5053054;28;45346;-77
2023/05/15 10:21:22;;;;;;;;;33.00;28.00;;;;;19.06;100.00;101362.53;5053418;28;45367;-77
2023/05/15 10:23:49;;;;;;;;;39.00;31.25;;;;;19.21;100.00;101372.13;5052974;28;47867;-75
2023/05/15 10:26:28;;;;;;;;;42.25;32.50;;;;;19.36;100.00;101365.66;5056190;28;45490;-75
2023/05/15 10:28:55;;;;;;;;;43.00;35.00;;;;;19.42;100.00;101367.34;5023061;28;45533;-75
2023/05/15 10:31:21;;;;;;;;;46.25;32.75;;;;;19.47;100.00;101365.47;5055710;28;45641;-75
2023/05/15 10:33:46;;;;;;;;;46.00;33.50;;;;;19.51;100.00;101369.88;5019573;28;72827;-73
2023/05/15 10:36:13;;;;;;;;;48.00;35.25;;;;;19.47;100.00;101366.34;5056661;28;61080;-72
2023/05/15 10:38:39;;;;;;;;;47.25;34.00;;;;;19.46;100.00;101364.59;5056559;28;45327;-74
2023/05/15 10:41:05;;;;;;;;;43.00;32.25;;;;;19.51;100.00;101356.47;5054804;28;45265;-75
2023/05/15 10:43:32;;;;;;;;;40.50;32.50;;;;;19.51;100.00;101360.03;5050809;28;45462;-80
2023/05/15 10:45:58;;;;;;;;;41.67;31.33;;;;;19.56;100.00;101351.94;5054364;28;55695;-78
2023/05/15 10:48:24;;;;;;;;;40.50;32.75;;;;;19.68;100.00;101356.19;5032732;28;45716;-81
2023/05/15 10:50:49;;;;;;;;;40.67;28.67;;;;;19.81;100.00;101363.09;5034828;28;45527;-83
2023/05/15 10:53:15;;;;;;;;;39.33;30.00;;;;;19.83;100.00;101358.59;5052465;28;45549;-80
2023/05/15 10:55:41;;;;;;;;;37.67;30.33;;;;;19.81;100.00;101355.94;5039309;28;45419;-81
2023/05/15 10:58:09;;;;;;;;;34.75;25.25;;;;;19.84;100.00;101353.22;5053743;28;45616;-80
2023/05/15 11:00:43;;;;;;;;;39.00;30.00;;;;;19.78;100.00;101353.31;5052972;28;45358;-80